sensor_id;sensor_type;location;lat;lon;timestamp;P1;durP1;ratioP1;P2;durP2;ratioP2
22184;SDS011;11258;52.516;13.318;2022-12-18T00:02:22;43.73;;;17.10;;
22184;SDS011;11258;52.516;13.318;2022-12-18T00:04:48;40.23;;;16.10;;
22184;SDS011;11258;52.516;13.318;2022-12-18T00:07:13;49.20;;;18.50;;
22184;SDS011;11258;52.516;13.318;2022-12-18T00:09:39;39.83;;;16.63;;
22184;SDS011;11258;52.516;13.318;2022-12-18T00:12:04;42.30;;;17.27;;
22184;SDS011;11258;52.516;13.318;2022-12-18T00:14:30;33.63;;;14.83;;
22184;SDS011;11258;52.516;13.318;2022-12-18T00:16:56;38.30;;;16.37;;
22184;SDS011;11258;52.516;13.318;2022-12-18T00:19:23;39.03;;;15.80;;
22184;SDS011;11258;52.516;13.318;2022-12-18T00:21:49;35.03;;;14.83;;
22184;SDS011;11258;52.516;13.318;2022-12-18T00:24:14;36.70;;;13.90;;
22184;SDS011;11258;52.516;13.318;2022-12-18T00:26:40;36.17;;;15.57;;
22184;SDS011;11258;52.516;13.318;2022-12-18T00:29:07;35.90;;;15.30;;
22184;SDS011;11258;52.516;13.318;2022-12-18T00:31:36;36.90;;;15.87;;
22184;SDS011;11258;52.516;13.318;2022-12-18T00:34:02;37.87;;;16.53;;
22184;SDS011;11258;52.516;13.318;2022-12-18T00:36:30;40.07;;;15.40;;
22184;SDS011;11258;52.516;13.318;2022-12-18T00:38:58;39.43;;;17.97;;
22184;SDS011;11258;52.516;13.318;2022-12-18T00:41:24;36.63;;;16.07;;
22184;SDS011;11258;52.516;13.318;2022-12-18T00:44:10;39.17;;;16.03;;
22184;SDS011;11258;52.516;13.318;2022-12-18T00:46:37;40.47;;;17.33;;
22184;SDS011;11258;52.516;13.318;2022-12-18T00:49:03;41.27;;;16.80;;
22184;SDS011;11258;52.516;13.318;2022-12-18T00:51:29;37.90;;;15.83;;
22184;SDS011;11258;52.516;13.318;2022-12-18T00:53:54;39.97;;;16.73;;
22184;SDS011;11258;52.516;13.318;2022-12-18T00:56:20;37.37;;;16.40;;
22184;SDS011;11258;52.516;13.318;2022-12-18T00:58:46;35.87;;;16.40;;
22184;SDS011;11258;52.516;13.318;2022-12-18T01:01:11;40.33;;;18.37;;
22184;SDS011;11258;52.516;13.318;2022-12-18T01:03:37;37.87;;;15.83;;
22184;SDS011;11258;52.516;13.318;2022-12-18T01:06:06;44.93;;;18.07;;
22184;SDS011;11258;52.516;13.318;2022-12-18T01:08:34;43.07;;;17.17;;
22184;SDS011;11258;52.516;13.318;2022-12-18T01:11:00;46.93;;;19.13;;
22184;SDS011;11258;52.516;13.318;2022-12-18T01:13:25;47.10;;;17.50;;
22184;SDS011;11258;52.516;13.318;2022-12-18T01:15:51;41.17;;;16.70;;
22184;SDS011;11258;52.516;13.318;2022-12-18T01:18:17;43.57;;;16.63;;
22184;SDS011;11258;52.516;13.318;2022-12-18T01:20:43;47.37;;;18.50;;
22184;SDS011;11258;52.516;13.318;2022-12-18T01:23:08;42.90;;;17.43;;
22184;SDS011;11258;52.516;13.318;2022-12-18T01:25:37;42.13;;;17.43;;
22184;SDS011;11258;52.516;13.318;2022-12-18T01:28:03;40.30;;;15.80;;
22184;SDS011;11258;52.516;13.318;2022-12-18T01:30:28;44.23;;;17.07;;
22184;SDS011;11258;52.516;13.318;2022-12-18T01:32:54;47.10;;;17.47;;
22184;SDS011;11258;52.516;13.318;2022-12-18T01:35:20;43.67;;;18.67;;
22184;SDS011;11258;52.516;13.318;2022-12-18T01:37:45;44.13;;;17.20;;
22184;SDS011;11258;52.516;13.318;2022-12-18T01:40:11;41.33;;;16.67;;
22184;SDS011;11258;52.516;13.318;2022-12-18T01:42:37;47.23;;;19.17;;
22184;SDS011;11258;52.516;13.318;2022-12-18T01:50:38;43.87;;;17.80;;
22184;SDS011;11258;52.516;13.318;2022-12-18T01:55:36;46.20;;;18.17;;
22184;SDS011;11258;52.516;13.318;2022-12-18T01:58:07;47.13;;;16.83;;
22184;SDS011;11258;52.516;13.318;2022-12-18T02:00:32;48.80;;;18.37;;
22184;SDS011;11258;52.516;13.318;2022-12-18T02:02:59;45.00;;;16.97;;
22184;SDS011;11258;52.516;13.318;2022-12-18T02:16:25;39.07;;;16.73;;
22184;SDS011;11258;52.516;13.318;2022-12-18T02:18:57;47.60;;;18.30;;
22184;SDS011;11258;52.516;13.318;2022-12-18T02:21:42;45.77;;;17.97;;
22184;SDS011;11258;52.516;13.318;2022-12-18T02:27:09;41.93;;;16.60;;
22184;SDS011;11258;52.516;13.318;2022-12-18T02:29:38;50.50;;;17.60;;
22184;SDS011;11258;52.516;13.318;2022-12-18T02:32:25;43.03;;;17.60;;
22184;SDS011;11258;52.516;13.318;2022-12-18T02:34:55;43.53;;;17.33;;
22184;SDS011;11258;52.516;13.318;2022-12-18T02:37:22;46.47;;;17.03;;
22184;SDS011;11258;52.516;13.318;2022-12-18T02:39:50;47.30;;;17.67;;
22184;SDS011;11258;52.516;13.318;2022-12-18T02:42:18;44.30;;;17.93;;
22184;SDS011;11258;52.516;13.318;2022-12-18T02:44:45;45.37;;;15.90;;
22184;SDS011;11258;52.516;13.318;2022-12-18T02:47:13;42.70;;;17.63;;
22184;SDS011;11258;52.516;13.318;2022-12-18T02:49:48;40.60;;;16.43;;
22184;SDS011;11258;52.516;13.318;2022-12-18T02:52:29;41.37;;;16.17;;
22184;SDS011;11258;52.516;13.318;2022-12-18T02:57:55;42.80;;;16.57;;
22184;SDS011;11258;52.516;13.318;2022-12-18T03:01:01;41.80;;;17.50;;
22184;SDS011;11258;52.516;13.318;2022-12-18T03:03:42;39.73;;;15.83;;
22184;SDS011;11258;52.516;13.318;2022-12-18T03:06:18;38.27;;;17.40;;
22184;SDS011;11258;52.516;13.318;2022-12-18T03:08:54;40.03;;;15.97;;
22184;SDS011;11258;52.516;13.318;2022-12-18T03:11:23;39.27;;;15.57;;
22184;SDS011;11258;52.516;13.318;2022-12-18T03:14:10;38.13;;;14.83;;
22184;SDS011;11258;52.516;13.318;2022-12-18T03:16:40;36.63;;;15.63;;
22184;SDS011;11258;52.516;13.318;2022-12-18T03:19:08;38.70;;;15.90;;
22184;SDS011;11258;52.516;13.318;2022-12-18T03:21:45;40.60;;;15.87;;
22184;SDS011;11258;52.516;13.318;2022-12-18T03:24:14;38.30;;;14.57;;
22184;SDS011;11258;52.516;13.318;2022-12-18T03:26:41;46.63;;;18.13;;
22184;SDS011;11258;52.516;13.318;2022-12-18T03:29:17;42.07;;;16.93;;
22184;SDS011;11258;52.516;13.318;2022-12-18T03:31:59;38.07;;;16.83;;
22184;SDS011;11258;52.516;13.318;2022-12-18T03:34:31;43.17;;;17.50;;
22184;SDS011;11258;52.516;13.318;2022-12-18T03:36:59;41.87;;;17.23;;
22184;SDS011;11258;52.516;13.318;2022-12-18T03:39:26;41.90;;;18.13;;
22184;SDS011;11258;52.516;13.318;2022-12-18T03:52:10;43.07;;;18.30;;
22184;SDS011;11258;52.516;13.318;2022-12-18T03:54:46;43.50;;;15.67;;
22184;SDS011;11258;52.516;13.318;2022-12-18T03:57:19;40.60;;;15.93;;
22184;SDS011;11258;52.516;13.318;2022-12-18T03:59:49;48.07;;;17.97;;
22184;SDS011;11258;52.516;13.318;2022-12-18T04:02:19;43.40;;;16.23;;
22184;SDS011;11258;52.516;13.318;2022-12-18T04:04:47;52.10;;;17.83;;
22184;SDS011;11258;52.516;13.318;2022-12-18T04:07:17;46.27;;;17.03;;
22184;SDS011;11258;52.516;13.318;2022-12-18T04:09:43;43.50;;;17.63;;
22184;SDS011;11258;52.516;13.318;2022-12-18T04:12:10;44.70;;;18.50;;
22184;SDS011;11258;52.516;13.318;2022-12-18T04:14:36;56.60;;;21.87;;
22184;SDS011;11258;52.516;13.318;2022-12-18T04:17:02;55.00;;;19.87;;
22184;SDS011;11258;52.516;13.318;2022-12-18T04:19:28;53.63;;;19.23;;
22184;SDS011;11258;52.516;13.318;2022-12-18T04:21:54;55.07;;;21.20;;
22184;SDS011;11258;52.516;13.318;2022-12-18T04:24:19;53.57;;;20.20;;
22184;SDS011;11258;52.516;13.318;2022-12-18T04:26:45;59.00;;;22.20;;
22184;SDS011;11258;52.516;13.318;2022-12-18T04:29:11;57.30;;;20.80;;
22184;SDS011;11258;52.516;13.318;2022-12-18T04:31:37;57.80;;;21.23;;
22184;SDS011;11258;52.516;13.318;2022-12-18T04:34:02;59.70;;;21.47;;
22184;SDS011;11258;52.516;13.318;2022-12-18T04:36:28;56.50;;;20.27;;
22184;SDS011;11258;52.516;13.318;2022-12-18T04:38:54;54.93;;;19.07;;
22184;SDS011;11258;52.516;13.318;2022-12-18T04:41:20;57.43;;;20.80;;
22184;SDS011;11258;52.516;13.318;2022-12-18T04:43:45;66.67;;;22.70;;
22184;SDS011;11258;52.516;13.318;2022-12-18T04:46:11;71.47;;;24.10;;
22184;SDS011;11258;52.516;13.318;2022-12-18T04:48:37;73.33;;;25.27;;
22184;SDS011;11258;52.516;13.318;2022-12-18T04:51:03;70.60;;;23.50;;
22184;SDS011;11258;52.516;13.318;2022-12-18T04:53:30;70.40;;;24.03;;
22184;SDS011;11258;52.516;13.318;2022-12-18T04:56:02;66.80;;;23.83;;
22184;SDS011;11258;52.516;13.318;2022-12-18T04:58:28;72.07;;;24.77;;
22184;SDS011;11258;52.516;13.318;2022-12-18T05:00:54;82.70;;;29.50;;
22184;SDS011;11258;52.516;13.318;2022-12-18T05:03:19;70.50;;;25.60;;
22184;SDS011;11258;52.516;13.318;2022-12-18T05:05:45;62.23;;;23.70;;
22184;SDS011;11258;52.516;13.318;2022-12-18T05:08:13;78.27;;;25.57;;
22184;SDS011;11258;52.516;13.318;2022-12-18T05:10:39;83.17;;;24.83;;
22184;SDS011;11258;52.516;13.318;2022-12-18T05:13:05;72.57;;;24.87;;
22184;SDS011;11258;52.516;13.318;2022-12-18T05:15:31;68.87;;;25.87;;
22184;SDS011;11258;52.516;13.318;2022-12-18T05:17:58;71.73;;;26.30;;
22184;SDS011;11258;52.516;13.318;2022-12-18T05:20:24;87.17;;;27.23;;
22184;SDS011;11258;52.516;13.318;2022-12-18T05:22:50;73.30;;;26.30;;
22184;SDS011;11258;52.516;13.318;2022-12-18T05:25:16;78.00;;;26.20;;
22184;SDS011;11258;52.516;13.318;2022-12-18T05:27:42;68.17;;;24.67;;
22184;SDS011;11258;52.516;13.318;2022-12-18T05:30:08;74.77;;;25.90;;
22184;SDS011;11258;52.516;13.318;2022-12-18T05:32:34;75.97;;;25.73;;
22184;SDS011;11258;52.516;13.318;2022-12-18T05:35:00;71.43;;;25.40;;
22184;SDS011;11258;52.516;13.318;2022-12-18T05:37:26;72.23;;;27.97;;
22184;SDS011;11258;52.516;13.318;2022-12-18T05:39:51;78.20;;;26.83;;
22184;SDS011;11258;52.516;13.318;2022-12-18T05:42:17;77.10;;;26.77;;
22184;SDS011;11258;52.516;13.318;2022-12-18T05:44:43;73.43;;;27.30;;
22184;SDS011;11258;52.516;13.318;2022-12-18T05:47:09;59.13;;;22.53;;
22184;SDS011;11258;52.516;13.318;2022-12-18T05:49:34;74.97;;;26.67;;
22184;SDS011;11258;52.516;13.318;2022-12-18T05:52:00;74.70;;;25.37;;
22184;SDS011;11258;52.516;13.318;2022-12-18T05:54:28;86.47;;;30.77;;
22184;SDS011;11258;52.516;13.318;2022-12-18T05:56:54;73.40;;;26.07;;
22184;SDS011;11258;52.516;13.318;2022-12-18T05:59:20;69.53;;;27.60;;
22184;SDS011;11258;52.516;13.318;2022-12-18T06:01:46;70.20;;;26.10;;
22184;SDS011;11258;52.516;13.318;2022-12-18T06:04:11;77.33;;;26.20;;
22184;SDS011;11258;52.516;13.318;2022-12-18T06:06:37;67.97;;;25.77;;
22184;SDS011;11258;52.516;13.318;2022-12-18T06:09:03;70.73;;;25.53;;
22184;SDS011;11258;52.516;13.318;2022-12-18T06:11:33;80.43;;;27.60;;
22184;SDS011;11258;52.516;13.318;2022-12-18T06:14:00;72.63;;;25.33;;
22184;SDS011;11258;52.516;13.318;2022-12-18T06:16:27;77.60;;;26.80;;
22184;SDS011;11258;52.516;13.318;2022-12-18T06:18:55;76.50;;;27.03;;
22184;SDS011;11258;52.516;13.318;2022-12-18T06:21:22;71.37;;;25.77;;
22184;SDS011;11258;52.516;13.318;2022-12-18T06:23:47;71.17;;;25.93;;
22184;SDS011;11258;52.516;13.318;2022-12-18T06:26:13;56.30;;;22.63;;
22184;SDS011;11258;52.516;13.318;2022-12-18T06:28:39;66.03;;;24.40;;
22184;SDS011;11258;52.516;13.318;2022-12-18T06:31:05;59.93;;;22.93;;
22184;SDS011;11258;52.516;13.318;2022-12-18T06:33:32;59.80;;;22.93;;
22184;SDS011;11258;52.516;13.318;2022-12-18T06:36:16;62.93;;;23.47;;
22184;SDS011;11258;52.516;13.318;2022-12-18T06:38:43;65.33;;;24.43;;
22184;SDS011;11258;52.516;13.318;2022-12-18T06:41:19;71.90;;;25.70;;
22184;SDS011;11258;52.516;13.318;2022-12-18T06:43:46;79.50;;;26.43;;
22184;SDS011;11258;52.516;13.318;2022-12-18T06:46:11;77.33;;;28.90;;
22184;SDS011;11258;52.516;13.318;2022-12-18T06:48:37;73.83;;;27.03;;
22184;SDS011;11258;52.516;13.318;2022-12-18T06:51:03;73.07;;;27.50;;
22184;SDS011;11258;52.516;13.318;2022-12-18T06:53:29;74.07;;;25.10;;
22184;SDS011;11258;52.516;13.318;2022-12-18T06:56:03;72.33;;;27.33;;
22184;SDS011;11258;52.516;13.318;2022-12-18T06:58:30;74.53;;;27.53;;
22184;SDS011;11258;52.516;13.318;2022-12-18T07:00:59;77.20;;;28.27;;
22184;SDS011;11258;52.516;13.318;2022-12-18T07:03:26;71.80;;;27.63;;
22184;SDS011;11258;52.516;13.318;2022-12-18T07:05:52;68.83;;;26.97;;
22184;SDS011;11258;52.516;13.318;2022-12-18T07:08:17;73.77;;;25.60;;
22184;SDS011;11258;52.516;13.318;2022-12-18T07:10:43;77.57;;;27.20;;
22184;SDS011;11258;52.516;13.318;2022-12-18T07:13:09;74.17;;;26.63;;
22184;SDS011;11258;52.516;13.318;2022-12-18T07:15:35;65.23;;;25.90;;
22184;SDS011;11258;52.516;13.318;2022-12-18T07:18:00;72.03;;;27.17;;
22184;SDS011;11258;52.516;13.318;2022-12-18T07:20:26;72.10;;;26.77;;
22184;SDS011;11258;52.516;13.318;2022-12-18T07:22:51;75.03;;;26.97;;
22184;SDS011;11258;52.516;13.318;2022-12-18T07:25:17;76.73;;;27.10;;
22184;SDS011;11258;52.516;13.318;2022-12-18T07:27:43;60.10;;;23.93;;
22184;SDS011;11258;52.516;13.318;2022-12-18T07:30:08;64.53;;;25.20;;
22184;SDS011;11258;52.516;13.318;2022-12-18T07:32:35;67.27;;;25.03;;
22184;SDS011;11258;52.516;13.318;2022-12-18T07:35:00;64.53;;;24.13;;
22184;SDS011;11258;52.516;13.318;2022-12-18T07:37:26;63.13;;;23.50;;
22184;SDS011;11258;52.516;13.318;2022-12-18T07:39:51;66.53;;;23.63;;
22184;SDS011;11258;52.516;13.318;2022-12-18T07:42:17;56.90;;;22.27;;
22184;SDS011;11258;52.516;13.318;2022-12-18T07:44:58;51.63;;;21.33;;
22184;SDS011;11258;52.516;13.318;2022-12-18T07:47:24;57.20;;;21.20;;
22184;SDS011;11258;52.516;13.318;2022-12-18T07:49:50;53.30;;;20.87;;
22184;SDS011;11258;52.516;13.318;2022-12-18T07:52:16;49.47;;;19.57;;
22184;SDS011;11258;52.516;13.318;2022-12-18T07:54:42;53.90;;;19.53;;
22184;SDS011;11258;52.516;13.318;2022-12-18T07:57:08;49.30;;;19.60;;
22184;SDS011;11258;52.516;13.318;2022-12-18T07:59:34;48.27;;;18.43;;
22184;SDS011;11258;52.516;13.318;2022-12-18T08:02:00;57.20;;;22.10;;
22184;SDS011;11258;52.516;13.318;2022-12-18T08:04:25;51.50;;;19.60;;
22184;SDS011;11258;52.516;13.318;2022-12-18T08:06:51;46.93;;;18.63;;
22184;SDS011;11258;52.516;13.318;2022-12-18T08:09:17;54.30;;;20.93;;
22184;SDS011;11258;52.516;13.318;2022-12-18T08:11:42;54.53;;;19.93;;
22184;SDS011;11258;52.516;13.318;2022-12-18T08:14:08;57.93;;;19.83;;
22184;SDS011;11258;52.516;13.318;2022-12-18T08:16:34;56.77;;;21.30;;
22184;SDS011;11258;52.516;13.318;2022-12-18T08:19:00;55.47;;;21.60;;
22184;SDS011;11258;52.516;13.318;2022-12-18T08:21:27;55.80;;;20.77;;
22184;SDS011;11258;52.516;13.318;2022-12-18T08:23:55;40.47;;;14.63;;
22184;SDS011;11258;52.516;13.318;2022-12-18T08:26:22;54.37;;;19.23;;
22184;SDS011;11258;52.516;13.318;2022-12-18T08:28:49;59.90;;;21.57;;
22184;SDS011;11258;52.516;13.318;2022-12-18T08:31:15;57.07;;;20.70;;
22184;SDS011;11258;52.516;13.318;2022-12-18T08:33:41;43.97;;;19.40;;
22184;SDS011;11258;52.516;13.318;2022-12-18T08:36:07;57.10;;;21.10;;
22184;SDS011;11258;52.516;13.318;2022-12-18T08:38:34;53.67;;;20.87;;
22184;SDS011;11258;52.516;13.318;2022-12-18T08:41:00;44.53;;;19.87;;
22184;SDS011;11258;52.516;13.318;2022-12-18T08:43:30;53.93;;;19.90;;
22184;SDS011;11258;52.516;13.318;2022-12-18T08:46:18;53.43;;;19.17;;
22184;SDS011;11258;52.516;13.318;2022-12-18T08:48:44;55.80;;;21.57;;
22184;SDS011;11258;52.516;13.318;2022-12-18T08:51:10;58.33;;;19.67;;
22184;SDS011;11258;52.516;13.318;2022-12-18T08:53:36;54.60;;;21.50;;
22184;SDS011;11258;52.516;13.318;2022-12-18T08:56:02;60.60;;;19.13;;
22184;SDS011;11258;52.516;13.318;2022-12-18T08:58:29;53.87;;;19.90;;
22184;SDS011;11258;52.516;13.318;2022-12-18T09:00:59;53.70;;;21.33;;
22184;SDS011;11258;52.516;13.318;2022-12-18T09:03:25;50.37;;;20.70;;
22184;SDS011;11258;52.516;13.318;2022-12-18T09:05:51;48.87;;;19.53;;
22184;SDS011;11258;52.516;13.318;2022-12-18T09:08:17;46.30;;;19.40;;
22184;SDS011;11258;52.516;13.318;2022-12-18T09:10:46;51.20;;;18.13;;
22184;SDS011;11258;52.516;13.318;2022-12-18T09:13:13;56.00;;;20.33;;
22184;SDS011;11258;52.516;13.318;2022-12-18T09:15:41;56.73;;;20.17;;
22184;SDS011;11258;52.516;13.318;2022-12-18T09:18:11;52.27;;;20.53;;
22184;SDS011;11258;52.516;13.318;2022-12-18T09:20:38;50.87;;;19.50;;
22184;SDS011;11258;52.516;13.318;2022-12-18T09:23:04;52.37;;;20.93;;
22184;SDS011;11258;52.516;13.318;2022-12-18T09:25:30;53.33;;;19.47;;
22184;SDS011;11258;52.516;13.318;2022-12-18T09:27:58;49.53;;;18.17;;
22184;SDS011;11258;52.516;13.318;2022-12-18T09:30:24;45.60;;;18.50;;
22184;SDS011;11258;52.516;13.318;2022-12-18T09:32:53;47.17;;;18.00;;
22184;SDS011;11258;52.516;13.318;2022-12-18T09:35:19;42.03;;;16.77;;
22184;SDS011;11258;52.516;13.318;2022-12-18T09:37:45;46.20;;;17.97;;
22184;SDS011;11258;52.516;13.318;2022-12-18T09:40:14;44.87;;;19.13;;
22184;SDS011;11258;52.516;13.318;2022-12-18T09:42:44;45.43;;;19.33;;
22184;SDS011;11258;52.516;13.318;2022-12-18T09:45:34;48.37;;;18.97;;
22184;SDS011;11258;52.516;13.318;2022-12-18T09:48:10;44.47;;;16.27;;
22184;SDS011;11258;52.516;13.318;2022-12-18T09:51:02;43.67;;;17.60;;
22184;SDS011;11258;52.516;13.318;2022-12-18T09:53:35;53.20;;;19.43;;
22184;SDS011;11258;52.516;13.318;2022-12-18T09:56:04;45.27;;;19.17;;
22184;SDS011;11258;52.516;13.318;2022-12-18T09:58:31;43.93;;;18.53;;
22184;SDS011;11258;52.516;13.318;2022-12-18T10:00:58;51.17;;;18.17;;
22184;SDS011;11258;52.516;13.318;2022-12-18T10:03:25;45.67;;;19.10;;
22184;SDS011;11258;52.516;13.318;2022-12-18T10:25:13;44.93;;;16.43;;
22184;SDS011;11258;52.516;13.318;2022-12-18T10:27:50;46.43;;;18.37;;
22184;SDS011;11258;52.516;13.318;2022-12-18T10:30:19;39.87;;;17.13;;
22184;SDS011;11258;52.516;13.318;2022-12-18T10:32:46;47.67;;;17.70;;
22184;SDS011;11258;52.516;13.318;2022-12-18T10:35:17;36.10;;;16.30;;
22184;SDS011;11258;52.516;13.318;2022-12-18T10:40:31;41.63;;;17.70;;
22184;SDS011;11258;52.516;13.318;2022-12-18T10:43:04;43.40;;;17.70;;
22184;SDS011;11258;52.516;13.318;2022-12-18T10:45:35;45.07;;;18.80;;
22184;SDS011;11258;52.516;13.318;2022-12-18T10:48:01;44.93;;;17.73;;
22184;SDS011;11258;52.516;13.318;2022-12-18T10:50:29;46.83;;;18.50;;
22184;SDS011;11258;52.516;13.318;2022-12-18T10:52:57;41.77;;;19.00;;
22184;SDS011;11258;52.516;13.318;2022-12-18T10:55:26;43.30;;;18.07;;
22184;SDS011;11258;52.516;13.318;2022-12-18T10:57:56;44.47;;;18.90;;
22184;SDS011;11258;52.516;13.318;2022-12-18T11:00:45;50.60;;;19.67;;
22184;SDS011;11258;52.516;13.318;2022-12-18T11:03:32;49.07;;;21.20;;
22184;SDS011;11258;52.516;13.318;2022-12-18T11:06:07;54.57;;;19.33;;
22184;SDS011;11258;52.516;13.318;2022-12-18T11:08:35;47.73;;;19.37;;
22184;SDS011;11258;52.516;13.318;2022-12-18T11:11:01;49.63;;;19.23;;
22184;SDS011;11258;52.516;13.318;2022-12-18T11:13:28;46.70;;;19.70;;
22184;SDS011;11258;52.516;13.318;2022-12-18T11:15:55;51.67;;;20.17;;
22184;SDS011;11258;52.516;13.318;2022-12-18T11:18:24;52.27;;;20.33;;
22184;SDS011;11258;52.516;13.318;2022-12-18T11:20:56;47.03;;;20.47;;
22184;SDS011;11258;52.516;13.318;2022-12-18T11:23:33;51.93;;;20.07;;
22184;SDS011;11258;52.516;13.318;2022-12-18T11:26:01;47.20;;;18.53;;
22184;SDS011;11258;52.516;13.318;2022-12-18T11:36:36;51.90;;;20.00;;
22184;SDS011;11258;52.516;13.318;2022-12-18T11:39:20;43.07;;;19.33;;
22184;SDS011;11258;52.516;13.318;2022-12-18T11:44:46;40.97;;;17.70;;
22184;SDS011;11258;52.516;13.318;2022-12-18T11:47:15;42.13;;;17.87;;
22184;SDS011;11258;52.516;13.318;2022-12-18T11:50:10;42.43;;;17.37;;
22184;SDS011;11258;52.516;13.318;2022-12-18T11:52:39;47.13;;;18.57;;
22184;SDS011;11258;52.516;13.318;2022-12-18T11:55:16;46.73;;;18.53;;
22184;SDS011;11258;52.516;13.318;2022-12-18T11:57:56;41.60;;;17.63;;
22184;SDS011;11258;52.516;13.318;2022-12-18T12:00:25;52.00;;;20.23;;
22184;SDS011;11258;52.516;13.318;2022-12-18T12:08:15;50.90;;;18.00;;
22184;SDS011;11258;52.516;13.318;2022-12-18T12:24:33;45.07;;;17.40;;
22184;SDS011;11258;52.516;13.318;2022-12-18T12:30:06;46.67;;;18.10;;
22184;SDS011;11258;52.516;13.318;2022-12-18T12:41:21;46.70;;;19.27;;
22184;SDS011;11258;52.516;13.318;2022-12-18T12:44:27;45.73;;;19.33;;
22184;SDS011;11258;52.516;13.318;2022-12-18T12:46:56;42.43;;;19.13;;
22184;SDS011;11258;52.516;13.318;2022-12-18T12:49:28;42.53;;;18.73;;
22184;SDS011;11258;52.516;13.318;2022-12-18T12:52:12;47.50;;;18.63;;
22184;SDS011;11258;52.516;13.318;2022-12-18T12:54:41;47.00;;;19.83;;
22184;SDS011;11258;52.516;13.318;2022-12-18T13:00:09;44.23;;;18.60;;
22184;SDS011;11258;52.516;13.318;2022-12-18T13:05:34;50.10;;;20.80;;
22184;SDS011;11258;52.516;13.318;2022-12-18T13:08:29;38.87;;;17.57;;
22184;SDS011;11258;52.516;13.318;2022-12-18T13:10:57;48.13;;;18.47;;
22184;SDS011;11258;52.516;13.318;2022-12-18T13:13:49;45.73;;;18.37;;
22184;SDS011;11258;52.516;13.318;2022-12-18T13:16:18;45.60;;;19.27;;
22184;SDS011;11258;52.516;13.318;2022-12-18T13:18:51;47.10;;;18.73;;
22184;SDS011;11258;52.516;13.318;2022-12-18T13:21:28;45.60;;;19.37;;
22184;SDS011;11258;52.516;13.318;2022-12-18T13:23:56;38.93;;;17.33;;
22184;SDS011;11258;52.516;13.318;2022-12-18T13:26:38;40.97;;;18.73;;
22184;SDS011;11258;52.516;13.318;2022-12-18T13:29:04;42.83;;;19.47;;
22184;SDS011;11258;52.516;13.318;2022-12-18T13:36:50;35.80;;;16.87;;
22184;SDS011;11258;52.516;13.318;2022-12-18T13:41:51;42.43;;;17.83;;
22184;SDS011;11258;52.516;13.318;2022-12-18T13:46:55;37.77;;;17.07;;
22184;SDS011;11258;52.516;13.318;2022-12-18T13:49:27;36.27;;;16.97;;
22184;SDS011;11258;52.516;13.318;2022-12-18T13:52:15;40.77;;;19.00;;
22184;SDS011;11258;52.516;13.318;2022-12-18T13:54:45;40.50;;;17.67;;
22184;SDS011;11258;52.516;13.318;2022-12-18T14:00:25;43.07;;;20.90;;
22184;SDS011;11258;52.516;13.318;2022-12-18T14:02:53;42.67;;;18.80;;
22184;SDS011;11258;52.516;13.318;2022-12-18T14:05:23;39.27;;;18.23;;
22184;SDS011;11258;52.516;13.318;2022-12-18T14:07:49;37.20;;;19.00;;
22184;SDS011;11258;52.516;13.318;2022-12-18T14:10:16;37.17;;;18.63;;
22184;SDS011;11258;52.516;13.318;2022-12-18T14:12:45;40.87;;;19.13;;
22184;SDS011;11258;52.516;13.318;2022-12-18T14:17:59;38.47;;;18.60;;
22184;SDS011;11258;52.516;13.318;2022-12-18T14:20:29;41.80;;;20.30;;
22184;SDS011;11258;52.516;13.318;2022-12-18T14:22:58;41.67;;;20.60;;
22184;SDS011;11258;52.516;13.318;2022-12-18T14:25:28;50.13;;;21.97;;
22184;SDS011;11258;52.516;13.318;2022-12-18T14:30:37;48.93;;;23.20;;
22184;SDS011;11258;52.516;13.318;2022-12-18T14:33:09;50.00;;;22.30;;
22184;SDS011;11258;52.516;13.318;2022-12-18T14:35:41;55.40;;;24.53;;
22184;SDS011;11258;52.516;13.318;2022-12-18T14:38:17;53.17;;;23.73;;
22184;SDS011;11258;52.516;13.318;2022-12-18T14:41:00;55.40;;;24.07;;
22184;SDS011;11258;52.516;13.318;2022-12-18T14:43:28;53.57;;;25.00;;
22184;SDS011;11258;52.516;13.318;2022-12-18T14:45:56;51.27;;;23.33;;
22184;SDS011;11258;52.516;13.318;2022-12-18T14:48:39;41.83;;;21.47;;
22184;SDS011;11258;52.516;13.318;2022-12-18T14:54:15;36.70;;;19.77;;
22184;SDS011;11258;52.516;13.318;2022-12-18T14:56:44;43.93;;;20.50;;
22184;SDS011;11258;52.516;13.318;2022-12-18T14:59:24;47.50;;;21.33;;
22184;SDS011;11258;52.516;13.318;2022-12-18T15:01:56;43.07;;;21.47;;
22184;SDS011;11258;52.516;13.318;2022-12-18T15:07:08;43.07;;;20.93;;
22184;SDS011;11258;52.516;13.318;2022-12-18T15:10:02;46.03;;;22.07;;
22184;SDS011;11258;52.516;13.318;2022-12-18T15:12:46;42.97;;;21.27;;
22184;SDS011;11258;52.516;13.318;2022-12-18T15:20:39;42.20;;;20.67;;
22184;SDS011;11258;52.516;13.318;2022-12-18T15:26:10;41.73;;;20.87;;
22184;SDS011;11258;52.516;13.318;2022-12-18T15:28:36;39.50;;;18.23;;
22184;SDS011;11258;52.516;13.318;2022-12-18T15:31:28;37.43;;;18.90;;
22184;SDS011;11258;52.516;13.318;2022-12-18T15:36:20;36.63;;;17.70;;
22184;SDS011;11258;52.516;13.318;2022-12-18T15:38:48;31.70;;;16.67;;
22184;SDS011;11258;52.516;13.318;2022-12-18T15:41:15;33.20;;;17.50;;
22184;SDS011;11258;52.516;13.318;2022-12-18T15:43:42;29.87;;;15.13;;
22184;SDS011;11258;52.516;13.318;2022-12-18T15:46:13;28.20;;;14.73;;
22184;SDS011;11258;52.516;13.318;2022-12-18T15:51:14;31.27;;;15.00;;
22184;SDS011;11258;52.516;13.318;2022-12-18T15:53:46;28.63;;;14.67;;
22184;SDS011;11258;52.516;13.318;2022-12-18T15:56:14;28.37;;;15.20;;
22184;SDS011;11258;52.516;13.318;2022-12-18T15:58:59;32.13;;;16.60;;
22184;SDS011;11258;52.516;13.318;2022-12-18T16:01:26;35.67;;;16.03;;
22184;SDS011;11258;52.516;13.318;2022-12-18T16:03:53;33.30;;;16.93;;
22184;SDS011;11258;52.516;13.318;2022-12-18T16:06:20;43.10;;;18.63;;
22184;SDS011;11258;52.516;13.318;2022-12-18T16:08:46;35.47;;;17.73;;
22184;SDS011;11258;52.516;13.318;2022-12-18T16:11:21;33.50;;;17.50;;
22184;SDS011;11258;52.516;13.318;2022-12-18T16:14:06;35.90;;;17.87;;
22184;SDS011;11258;52.516;13.318;2022-12-18T16:16:45;30.87;;;16.33;;
22184;SDS011;11258;52.516;13.318;2022-12-18T16:19:11;30.67;;;15.60;;
22184;SDS011;11258;52.516;13.318;2022-12-18T16:21:37;32.17;;;16.17;;
22184;SDS011;11258;52.516;13.318;2022-12-18T16:24:03;35.80;;;16.93;;
22184;SDS011;11258;52.516;13.318;2022-12-18T16:26:31;26.83;;;15.47;;
22184;SDS011;11258;52.516;13.318;2022-12-18T16:28:57;30.23;;;16.47;;
22184;SDS011;11258;52.516;13.318;2022-12-18T16:31:22;32.50;;;17.13;;
22184;SDS011;11258;52.516;13.318;2022-12-18T16:33:48;27.30;;;15.87;;
22184;SDS011;11258;52.516;13.318;2022-12-18T16:36:14;30.53;;;15.90;;
22184;SDS011;11258;52.516;13.318;2022-12-18T16:38:39;30.73;;;15.57;;
22184;SDS011;11258;52.516;13.318;2022-12-18T16:41:18;35.17;;;16.57;;
22184;SDS011;11258;52.516;13.318;2022-12-18T16:43:56;35.10;;;17.50;;
22184;SDS011;11258;52.516;13.318;2022-12-18T16:46:22;30.53;;;15.27;;